createdAt,value
2022-07-29T00:00:52.612Z,79.45
2022-07-29T00:03:24.208Z,79.56
2022-07-29T00:05:55.084Z,79.43
2022-07-29T00:08:23.829Z,80.08
2022-07-29T00:10:54.137Z,80.28
2022-07-29T00:13:32.257Z,80.61
2022-07-29T00:16:04.565Z,79.28
2022-07-29T00:18:38.449Z,80.61
2022-07-29T00:21:08.775Z,80.72
2022-07-29T00:23:37.443Z,80.37
2022-07-29T00:26:06.150Z,80.15
2022-07-29T00:28:35.811Z,80.47
2022-07-29T00:31:06.075Z,80.54
2022-07-29T00:33:34.812Z,80.68
2022-07-29T00:36:02.406Z,80.12
2022-07-29T00:38:32.753Z,79.87
2022-07-29T00:41:01.525Z,79.90
2022-07-29T00:43:30.238Z,80.33
2022-07-29T00:45:59.858Z,80.18
2022-07-29T00:48:28.646Z,80.80
2022-07-29T00:50:57.950Z,80.44
2022-07-29T00:53:29.286Z,80.68
2022-07-29T00:55:59.916Z,80.79
2022-07-29T00:58:30.444Z,80.50
2022-07-29T01:01:01.088Z,80.49
2022-07-29T01:03:29.975Z,80.80
2022-07-29T01:05:58.979Z,80.77
2022-07-29T01:08:27.662Z,81.23
2022-07-29T01:10:56.856Z,80.92
2022-07-29T01:13:29.210Z,81.12
2022-07-29T01:16:00.886Z,81.37
2022-07-29T01:18:34.083Z,82.29
2022-07-29T01:21:30.392Z,83.03
2022-07-29T01:24:14.031Z,83.55
2022-07-29T01:27:23.517Z,83.58
2022-07-29T01:29:55.002Z,84.21
2022-07-29T01:32:29.494Z,84.95
2022-07-29T01:35:02.500Z,85.22
2022-07-29T01:37:37.537Z,85.46
2022-07-29T01:40:14.319Z,85.73
2022-07-29T01:42:46.026Z,85.76
2022-07-29T01:45:18.478Z,85.87
2022-07-29T01:47:52.529Z,86.15
2022-07-29T01:50:26.635Z,86.45
2022-07-29T01:52:58.865Z,86.95
2022-07-29T01:55:32.233Z,87.19
2022-07-29T01:58:02.811Z,87.40
2022-07-29T02:01:21.608Z,87.65
2022-07-29T02:03:52.264Z,87.53
2022-07-29T02:06:25.129Z,87.63
2022-07-29T02:08:57.347Z,87.62
2022-07-29T02:11:26.345Z,86.27
2022-07-29T02:13:56.876Z,84.78
2022-07-29T02:16:27.176Z,83.66
2022-07-29T02:18:58.254Z,82.24
2022-07-29T02:21:27.841Z,81.53
2022-07-29T02:23:58.939Z,79.77
2022-07-29T02:26:28.696Z,78.42
2022-07-29T02:28:59.081Z,77.52
2022-07-29T02:31:33.563Z,76.87
2022-07-29T02:34:05.104Z,76.28
2022-07-29T02:36:34.415Z,75.50
2022-07-29T02:39:05.556Z,75.37
2022-07-29T02:41:39.925Z,74.57
2022-07-29T02:44:13.142Z,73.94
2022-07-29T02:47:15.168Z,73.73
2022-07-29T02:50:00.537Z,75.48
2022-07-29T02:52:34.862Z,76.91
2022-07-29T02:55:07.183Z,78.22
2022-07-29T02:57:54.690Z,80.03
2022-07-29T03:00:26.465Z,80.09
2022-07-29T03:02:59.005Z,80.10
2022-07-29T03:05:31.442Z,79.70
2022-07-29T03:08:04.368Z,79.47
2022-07-29T03:10:33.302Z,79.98
2022-07-29T03:13:02.780Z,79.85
2022-07-29T03:15:32.075Z,80.46
2022-07-29T03:18:01.178Z,80.90
2022-07-29T03:20:31.221Z,80.43
2022-07-29T03:23:03.821Z,80.72
2022-07-29T03:25:33.010Z,80.59
2022-07-29T03:28:01.800Z,80.56
2022-07-29T03:30:31.844Z,79.76
2022-07-29T03:33:03.217Z,80.16
2022-07-29T03:35:44.196Z,79.96
2022-07-29T03:38:12.837Z,79.16
2022-07-29T03:40:47.609Z,79.09
2022-07-29T03:43:20.948Z,79.36
2022-07-29T03:45:53.670Z,78.13
2022-07-29T03:48:23.759Z,77.76
2022-07-29T03:50:55.378Z,78.01
2022-07-29T03:53:24.241Z,77.70
2022-07-29T03:55:57.492Z,78.01
2022-07-29T03:58:27.279Z,78.35
2022-07-29T04:00:58.340Z,77.68
2022-07-29T04:03:27.168Z,77.19
2022-07-29T04:06:08.655Z,76.78
2022-07-29T04:08:37.433Z,76.29
2022-07-29T04:11:07.152Z,75.57
2022-07-29T04:13:35.972Z,75.20
2022-07-29T04:16:07.297Z,74.77
2022-07-29T04:18:36.038Z,74.75
2022-07-29T04:21:06.973Z,74.44
2022-07-29T04:23:35.667Z,74.64
2022-07-29T04:26:23.225Z,74.32
2022-07-29T04:28:51.936Z,72.68
2022-07-29T04:31:25.724Z,73.15
2022-07-29T04:33:54.897Z,73.39
2022-07-29T04:36:29.401Z,73.11
2022-07-29T04:38:58.760Z,73.92
2022-07-29T04:41:33.432Z,73.73
2022-07-29T04:44:06.847Z,72.57
2022-07-29T04:47:06.654Z,71.88
2022-07-29T04:49:35.354Z,71.93
2022-07-29T04:52:06.291Z,71.99
2022-07-29T04:54:38.112Z,71.57
2022-07-29T04:57:06.725Z,71.36
2022-07-29T04:59:35.431Z,71.50
2022-07-29T05:02:04.221Z,71.08
2022-07-29T05:04:32.893Z,71.97
2022-07-29T05:07:01.590Z,71.58
2022-07-29T05:09:33.409Z,71.87
2022-07-29T05:12:03.160Z,71.17
2022-07-29T05:14:37.547Z,70.64
2022-07-29T05:17:06.539Z,70.79
2022-07-29T05:19:40.771Z,70.67
2022-07-29T05:22:09.441Z,70.51
2022-07-29T05:24:39.622Z,70.23
2022-07-29T05:27:08.349Z,70.48
2022-07-29T05:29:42.716Z,69.62
2022-07-29T05:32:16.971Z,69.06
2022-07-29T05:34:50.095Z,67.77
2022-07-29T05:37:21.060Z,67.96
2022-07-29T05:39:56.655Z,67.29
2022-07-29T05:42:28.106Z,68.51
2022-07-29T05:44:56.794Z,67.69
2022-07-29T05:47:25.581Z,67.40
2022-07-29T05:49:55.085Z,66.02
2022-07-29T05:52:25.857Z,66.64
2022-07-29T05:54:55.867Z,66.34
2022-07-29T05:57:26.311Z,65.13
2022-07-29T05:59:55.201Z,65.29
2022-07-29T06:05:17.630Z,64.49
2022-07-29T06:07:50.637Z,64.51
2022-07-29T06:10:27.023Z,64.11
2022-07-29T06:12:56.114Z,63.78
2022-07-29T06:15:24.865Z,62.75
2022-07-29T06:17:59.009Z,61.56
2022-07-29T06:20:34.148Z,61.27
2022-07-29T06:23:05.609Z,61.52
2022-07-29T06:25:37.763Z,61.88
2022-07-29T06:28:06.694Z,60.03
2022-07-29T06:30:35.490Z,60.15
2022-07-29T06:33:04.406Z,60.24
2022-07-29T06:35:41.177Z,59.66
2022-07-29T06:38:31.685Z,59.94
2022-07-29T06:41:04.159Z,58.39
2022-07-29T06:43:35.232Z,58.04
2022-07-29T06:46:06.069Z,56.21
2022-07-29T06:48:35.221Z,57.03
2022-07-29T06:51:07.774Z,57.99
2022-07-29T06:53:38.811Z,57.93
2022-07-29T06:56:28.066Z,56.15
2022-07-29T06:58:56.665Z,56.49
2022-07-29T07:01:31.414Z,56.12
2022-07-29T07:04:00.103Z,55.02
2022-07-29T07:06:29.153Z,55.98
2022-07-29T07:08:57.823Z,55.63
2022-07-29T07:11:52.651Z,55.30
2022-07-29T07:14:24.621Z,54.20
2022-07-29T07:17:01.432Z,53.13
2022-07-29T07:19:34.377Z,53.90
2022-07-29T07:22:02.960Z,53.45
2022-07-29T07:24:37.121Z,53.40
2022-07-29T07:27:07.348Z,53.56
2022-07-29T07:29:44.457Z,53.52
2022-07-29T07:32:14.429Z,53.71
2022-07-29T07:34:46.368Z,53.98
2022-07-29T07:37:15.692Z,54.08
2022-07-29T07:39:47.967Z,53.48
2022-07-29T07:42:20.553Z,53.11
2022-07-29T07:45:12.099Z,52.46
2022-07-29T07:47:38.813Z,50.39
2022-07-29T07:50:09.360Z,50.33
2022-07-29T07:52:48.514Z,50.66
2022-07-29T07:55:17.299Z,50.07
2022-07-29T07:57:48.830Z,49.48
2022-07-29T08:00:27.039Z,49.60
2022-07-29T08:02:55.960Z,49.12
2022-07-29T08:05:24.611Z,49.37
2022-07-29T08:07:53.294Z,48.98
2022-07-29T08:10:47.362Z,48.40
2022-07-29T08:13:17.631Z,48.03
2022-07-29T08:15:46.950Z,47.62
2022-07-29T08:18:16.858Z,45.03
2022-07-29T08:21:09.826Z,44.41
2022-07-29T08:23:47.100Z,45.95
2022-07-29T08:26:17.789Z,45.21
2022-07-29T08:28:50.621Z,45.02
2022-07-29T08:31:24.896Z,45.67
2022-07-29T08:33:57.441Z,45.29
2022-07-29T08:36:29.832Z,44.89
2022-07-29T08:39:00.613Z,44.71
2022-07-29T08:41:29.616Z,44.82
2022-07-29T08:43:59.796Z,44.50
2022-07-29T08:46:28.809Z,45.19
2022-07-29T08:48:59.322Z,46.10
2022-07-29T08:51:30.256Z,46.25
2022-07-29T08:54:00.776Z,45.97
2022-07-29T08:56:29.970Z,46.64
2022-07-29T08:59:01.090Z,47.09
2022-07-29T09:01:42.668Z,46.01
2022-07-29T09:04:16.316Z,45.41
2022-07-29T09:06:48.553Z,45.72
2022-07-29T09:09:17.340Z,46.04
2022-07-29T09:11:48.359Z,46.21
2022-07-29T09:15:08.464Z,46.33
2022-07-29T09:17:47.399Z,46.69
2022-07-29T09:20:55.239Z,46.04
2022-07-29T09:23:24.989Z,46.04
2022-07-29T09:25:53.664Z,46.21
2022-07-29T09:28:24.938Z,44.58
2022-07-29T09:30:54.403Z,45.18
2022-07-29T09:33:25.328Z,44.69
2022-07-29T09:36:02.530Z,45.00
2022-07-29T09:38:33.078Z,45.70
2022-07-29T09:41:05.702Z,46.01
2022-07-29T09:43:38.084Z,45.72
2022-07-29T09:46:13.882Z,45.69
2022-07-29T09:48:44.017Z,44.39
2022-07-29T09:51:38.345Z,44.04
2022-07-29T09:54:26.815Z,42.75
2022-07-29T09:56:56.341Z,42.18
2022-07-29T09:59:58.377Z,42.05
2022-07-29T10:02:31.621Z,42.13
2022-07-29T10:05:08.569Z,42.70
2022-07-29T10:07:53.625Z,43.27
2022-07-29T10:10:30.385Z,42.87
2022-07-29T10:13:04.582Z,43.65
2022-07-29T10:15:42.506Z,42.58
2022-07-29T10:18:11.906Z,42.19
2022-07-29T10:21:06.399Z,42.46
2022-07-29T10:23:46.193Z,42.55
2022-07-29T10:26:18.487Z,42.65
2022-07-29T10:28:48.221Z,42.14
2022-07-29T10:31:25.336Z,41.82
2022-07-29T10:34:02.402Z,42.62
2022-07-29T10:36:46.739Z,42.64
2022-07-29T10:39:55.500Z,43.20
2022-07-29T10:45:23.670Z,42.60
2022-07-29T10:48:05.630Z,42.00
2022-07-29T10:50:57.968Z,41.58
2022-07-29T10:53:51.906Z,41.77
2022-07-29T10:56:34.462Z,41.63
2022-07-29T10:59:53.030Z,40.48
2022-07-29T11:02:50.603Z,40.57
2022-07-29T11:05:20.589Z,41.17
2022-07-29T11:08:27.784Z,41.97
2022-07-29T11:11:39.813Z,41.20
2022-07-29T11:17:14.322Z,42.91
2022-07-29T11:20:31.307Z,41.89
2022-07-29T11:23:01.238Z,42.10
2022-07-29T11:25:42.851Z,42.25
2022-07-29T11:28:25.392Z,41.46
2022-07-29T11:30:56.714Z,41.42
2022-07-29T11:33:54.125Z,40.33
2022-07-29T11:36:28.271Z,40.88
2022-07-29T11:39:53.482Z,40.49
2022-07-29T11:42:42.107Z,40.88
2022-07-29T11:45:43.984Z,41.30
2022-07-29T11:48:31.740Z,42.38
2022-07-29T11:51:04.416Z,42.58
2022-07-29T11:53:36.868Z,43.46
2022-07-29T11:56:06.789Z,42.88
2022-07-29T11:58:36.161Z,43.31
2022-07-29T12:01:07.440Z,43.31
2022-07-29T12:03:44.836Z,44.16
2022-07-29T12:06:22.607Z,43.77
2022-07-29T12:08:51.474Z,42.92
2022-07-29T12:11:23.390Z,43.10
2022-07-29T12:13:54.508Z,43.55
2022-07-29T12:16:26.048Z,43.91
2022-07-29T12:19:02.267Z,43.91
2022-07-29T12:21:31.839Z,43.69
2022-07-29T12:24:50.274Z,43.13
2022-07-29T12:27:29.528Z,43.33
2022-07-29T12:30:04.615Z,43.33
2022-07-29T12:32:35.979Z,42.62
2022-07-29T12:35:08.905Z,42.07
2022-07-29T12:37:40.905Z,42.54
2022-07-29T12:40:13.774Z,41.19
2022-07-29T12:42:42.574Z,41.58
2022-07-29T12:45:17.943Z,41.73
2022-07-29T12:47:55.987Z,42.42
2022-07-29T12:50:26.621Z,41.92
2022-07-29T12:52:56.076Z,40.80
2022-07-29T12:55:52.435Z,41.58
2022-07-29T12:58:33.090Z,42.36
2022-07-29T13:01:21.225Z,42.90
2022-07-29T13:03:57.405Z,43.28
2022-07-29T13:06:32.736Z,43.36
2022-07-29T13:09:03.043Z,43.50
2022-07-29T13:11:34.650Z,42.84
2022-07-29T13:14:07.218Z,42.89
2022-07-29T13:16:36.071Z,42.81
2022-07-29T13:19:18.548Z,43.11
2022-07-29T13:21:48.652Z,43.17
2022-07-29T13:24:50.336Z,43.41
2022-07-29T13:27:19.598Z,43.45
2022-07-29T13:29:49.855Z,42.55
2022-07-29T13:32:27.948Z,42.38
2022-07-29T13:35:05.457Z,42.43
2022-07-29T13:37:39.598Z,41.76
2022-07-29T13:40:09.044Z,41.50
2022-07-29T13:42:38.036Z,40.64
2022-07-29T13:45:08.113Z,40.59
2022-07-29T13:47:36.879Z,40.63
2022-07-29T13:50:11.633Z,40.50
2022-07-29T13:52:41.811Z,41.40
2022-07-29T13:55:12.581Z,41.09
2022-07-29T13:58:06.459Z,41.41
2022-07-29T14:00:35.763Z,40.37
2022-07-29T14:03:04.457Z,40.34
2022-07-29T14:05:33.101Z,40.31
2022-07-29T14:08:03.278Z,39.98
2022-07-29T14:10:34.108Z,39.99
2022-07-29T14:13:03.955Z,40.02
2022-07-29T14:15:33.634Z,40.62
2022-07-29T14:18:08.170Z,40.38
2022-07-29T14:20:38.550Z,40.94
2022-07-29T14:23:08.748Z,40.92
2022-07-29T14:25:40.978Z,40.55
2022-07-29T14:28:11.864Z,40.39
2022-07-29T14:31:08.535Z,40.98
2022-07-29T14:33:37.790Z,41.14
2022-07-29T14:36:06.901Z,41.40
2022-07-29T14:38:38.448Z,41.27
2022-07-29T14:41:07.126Z,41.23
2022-07-29T14:43:37.100Z,41.33
2022-07-29T14:46:08.503Z,41.67
2022-07-29T14:48:37.491Z,40.87
2022-07-29T14:51:06.437Z,41.37
2022-07-29T14:53:40.349Z,41.79
2022-07-29T14:56:35.042Z,42.12
2022-07-29T14:58:57.899Z,42.37
2022-07-29T15:01:26.923Z,42.59
2022-07-29T15:03:59.561Z,42.02
2022-07-29T15:06:28.845Z,42.40
2022-07-29T15:08:59.069Z,42.81
2022-07-29T15:11:27.791Z,42.93
2022-07-29T15:13:56.518Z,43.27
2022-07-29T15:16:25.269Z,43.57
2022-07-29T15:18:53.964Z,43.98
2022-07-29T15:21:22.900Z,43.94
2022-07-29T15:23:51.620Z,43.75
2022-07-29T15:26:21.743Z,44.65
2022-07-29T15:28:50.941Z,45.01
2022-07-29T15:31:20.019Z,45.16
2022-07-29T15:33:48.824Z,49.08
2022-07-29T15:36:42.141Z,51.54
2022-07-29T15:39:10.778Z,53.23
2022-07-29T15:41:40.952Z,53.85
2022-07-29T15:44:41.313Z,54.16
2022-07-29T15:47:11.446Z,53.40
2022-07-29T15:49:47.190Z,53.94
2022-07-29T15:52:26.225Z,53.90
2022-07-29T15:54:56.347Z,53.28
2022-07-29T15:57:27.796Z,53.61
2022-07-29T15:59:57.381Z,53.77
2022-07-29T16:02:27.100Z,53.59
2022-07-29T16:04:55.751Z,54.22
2022-07-29T16:07:24.469Z,54.54
2022-07-29T16:10:01.265Z,54.56
2022-07-29T16:12:34.938Z,55.13
2022-07-29T16:15:09.489Z,55.52
2022-07-29T16:17:40.786Z,55.72
2022-07-29T16:20:13.780Z,56.19
2022-07-29T16:22:48.256Z,56.40
2022-07-29T16:25:18.488Z,56.39
2022-07-29T16:27:48.787Z,56.87
2022-07-29T16:30:48.453Z,56.96
2022-07-29T16:36:10.733Z,57.57
2022-07-29T16:38:47.104Z,57.61
2022-07-29T16:41:16.482Z,58.11
2022-07-29T16:44:12.235Z,58.10
2022-07-29T16:46:41.513Z,57.43
2022-07-29T16:49:40.698Z,57.49
2022-07-29T16:52:09.353Z,57.36
2022-07-29T16:54:38.790Z,57.33
2022-07-29T16:57:32.717Z,57.29
2022-07-29T17:00:09.103Z,57.38
2022-07-29T17:02:39.822Z,57.52
2022-07-29T17:05:09.571Z,57.73
2022-07-29T17:07:39.896Z,57.76
2022-07-29T17:10:11.138Z,58.14
2022-07-29T17:12:41.314Z,57.91
2022-07-29T17:15:19.327Z,57.44
2022-07-29T17:17:56.530Z,57.84
2022-07-29T17:20:27.518Z,58.25
2022-07-29T17:22:56.409Z,58.44
2022-07-29T17:25:31.249Z,58.36
2022-07-29T17:28:01.381Z,58.05
2022-07-29T17:30:33.924Z,57.51
2022-07-29T17:33:04.537Z,58.31
2022-07-29T17:35:50.586Z,59.35
2022-07-29T17:38:19.338Z,60.36
2022-07-29T17:40:51.358Z,60.01
2022-07-29T17:43:20.111Z,60.29
2022-07-29T17:45:50.973Z,59.99
2022-07-29T17:48:20.784Z,59.53
2022-07-29T17:50:50.323Z,59.51
2022-07-29T17:53:20.996Z,60.30
2022-07-29T17:55:49.965Z,61.06
2022-07-29T17:58:19.567Z,61.52
2022-07-29T18:00:49.947Z,60.85
2022-07-29T18:03:18.896Z,61.27
2022-07-29T18:05:47.619Z,59.95
2022-07-29T18:08:21.315Z,60.52
2022-07-29T18:10:49.974Z,60.34
2022-07-29T18:13:19.109Z,59.87
2022-07-29T18:15:50.568Z,59.39
2022-07-29T18:18:19.591Z,59.40
2022-07-29T18:24:07.898Z,59.80
2022-07-29T18:26:37.240Z,59.89
2022-07-29T18:29:06.123Z,60.15
2022-07-29T18:32:06.829Z,60.41
2022-07-29T18:35:05.417Z,60.89
2022-07-29T18:38:01.217Z,61.13
2022-07-29T18:40:29.660Z,61.35
2022-07-29T18:43:02.489Z,61.68
2022-07-29T18:45:31.491Z,61.76
2022-07-29T18:48:03.171Z,61.98
2022-07-29T18:50:32.082Z,62.37
2022-07-29T18:53:02.241Z,62.17
2022-07-29T18:55:32.770Z,62.60
2022-07-29T18:58:01.379Z,62.94
2022-07-29T19:00:59.397Z,63.20
2022-07-29T19:03:31.352Z,63.33
2022-07-29T19:06:00.037Z,63.57
2022-07-29T19:08:28.763Z,63.68
2022-07-29T19:10:59.455Z,64.14
2022-07-29T19:13:28.172Z,64.07
2022-07-29T19:15:56.986Z,64.29
2022-07-29T19:18:25.613Z,64.68
2022-07-29T19:20:56.219Z,64.83
2022-07-29T19:23:25.665Z,64.80
2022-07-29T19:25:54.486Z,65.14
2022-07-29T19:28:23.393Z,65.34
2022-07-29T19:30:52.162Z,65.94
2022-07-29T19:33:21.125Z,66.19
2022-07-29T19:35:54.549Z,66.29
2022-07-29T19:38:26.792Z,66.43
2022-07-29T19:40:56.623Z,66.71
2022-07-29T19:43:51.798Z,67.03
2022-07-29T19:46:14.615Z,67.56
2022-07-29T19:48:43.269Z,67.99
2022-07-29T19:51:11.902Z,68.34
2022-07-29T19:53:48.305Z,68.95
2022-07-29T19:56:16.898Z,68.99
2022-07-29T19:58:48.528Z,69.45
2022-07-29T20:01:21.169Z,69.33
2022-07-29T20:03:49.820Z,69.16
2022-07-29T20:06:24.757Z,69.04
2022-07-29T20:08:58.596Z,69.20
2022-07-29T20:11:30.592Z,69.55
2022-07-29T20:13:59.209Z,69.78
2022-07-29T20:16:30.453Z,69.60
2022-07-29T20:18:59.141Z,69.45
2022-07-29T20:21:28.893Z,69.31
2022-07-29T20:24:00.596Z,69.44
2022-07-29T20:26:36.717Z,69.40
2022-07-29T20:29:05.965Z,69.43
2022-07-29T20:31:34.738Z,70.01
2022-07-29T20:34:04.403Z,70.00
2022-07-29T20:36:37.545Z,69.88
2022-07-29T20:39:07.689Z,69.93
2022-07-29T20:41:36.312Z,69.99
2022-07-29T20:44:05.643Z,69.63
2022-07-29T20:46:34.619Z,69.93
2022-07-29T20:49:05.192Z,70.28
2022-07-29T20:51:43.284Z,70.51
2022-07-29T20:54:15.847Z,70.79
2022-07-29T20:56:45.165Z,70.40
2022-07-29T20:59:45.804Z,70.15
2022-07-29T21:02:16.299Z,67.35
2022-07-29T21:04:53.681Z,67.62
2022-07-29T21:07:22.320Z,66.62
2022-07-29T21:09:59.797Z,66.10
2022-07-29T21:12:30.760Z,66.49
2022-07-29T21:14:59.409Z,66.38
2022-07-29T21:17:28.068Z,67.00
2022-07-29T21:19:56.728Z,66.99
2022-07-29T21:22:50.825Z,67.49
2022-07-29T21:25:25.210Z,68.41
2022-07-29T21:28:11.297Z,69.11
2022-07-29T21:30:42.386Z,68.87
2022-07-29T21:33:11.087Z,69.72
2022-07-29T21:36:15.003Z,69.36
2022-07-29T21:38:31.849Z,69.83
2022-07-29T21:41:02.607Z,69.89
2022-07-29T21:43:31.346Z,69.89
2022-07-29T21:46:01.083Z,70.27
2022-07-29T21:48:30.236Z,70.73
2022-07-29T21:51:04.417Z,70.94
2022-07-29T21:53:33.223Z,71.45
2022-07-29T21:56:03.763Z,71.66
2022-07-29T21:58:38.405Z,72.14
2022-07-29T22:01:12.035Z,72.68
2022-07-29T22:03:40.747Z,73.30
2022-07-29T22:06:16.676Z,73.63
2022-07-29T22:08:48.140Z,74.10
2022-07-29T22:11:22.094Z,74.46
2022-07-29T22:13:51.572Z,73.83
2022-07-29T22:16:21.646Z,72.93
2022-07-29T22:18:50.199Z,73.90
2022-07-29T22:21:43.777Z,73.98
2022-07-29T22:24:13.023Z,75.01
2022-07-29T22:26:43.909Z,75.16
2022-07-29T22:30:02.233Z,75.00
2022-07-29T22:32:32.861Z,73.95
2022-07-29T22:35:02.356Z,74.17
2022-07-29T22:37:32.637Z,75.18
2022-07-29T22:40:03.308Z,74.96
2022-07-29T22:42:33.836Z,74.81
2022-07-29T22:45:02.560Z,75.08
2022-07-29T22:47:39.782Z,74.83
2022-07-29T22:53:12.909Z,75.63
2022-07-29T22:55:41.577Z,76.36
2022-07-29T22:58:13.283Z,76.64
2022-07-29T23:00:44.593Z,76.65
2022-07-29T23:03:14.559Z,77.15
2022-07-29T23:05:43.235Z,77.69
2022-07-29T23:08:11.849Z,77.95
2022-07-29T23:10:44.808Z,76.72
2022-07-29T23:13:17.178Z,76.79
2022-07-29T23:15:47.978Z,77.17
2022-07-29T23:18:21.022Z,76.25
2022-07-29T23:20:50.715Z,76.65
2022-07-29T23:23:19.415Z,77.19
2022-07-29T23:25:51.099Z,77.03
2022-07-29T23:28:22.219Z,76.74
2022-07-29T23:31:20.659Z,76.80
2022-07-29T23:33:49.445Z,76.52
2022-07-29T23:36:20.195Z,76.95
2022-07-29T23:38:48.950Z,77.23
2022-07-29T23:41:21.588Z,78.12
2022-07-29T23:43:52.158Z,78.32
2022-07-29T23:46:23.940Z,77.98
2022-07-29T23:48:53.006Z,78.04
2022-07-29T23:51:21.610Z,78.22
2022-07-29T23:53:54.001Z,79.12
2022-07-29T23:56:24.715Z,79.14
2022-07-29T23:58:54.694Z,79.66
